sensor_id;sensor_type;location;lat;lon;timestamp;pressure;altitude;pressure_sealevel;temperature;humidity
66196;BME280;53000;45.182;5.736;2022-08-19T00:01:45;98899.72;;;21.70;65.98
66196;BME280;53000;45.182;5.736;2022-08-19T00:04:13;98911.59;;;21.70;66.25
66196;BME280;53000;45.182;5.736;2022-08-19T00:06:41;98901.06;;;21.67;65.91
66196;BME280;53000;45.182;5.736;2022-08-19T00:09:09;98897.06;;;21.58;66.91
66196;BME280;53000;45.182;5.736;2022-08-19T00:11:35;98892.38;;;21.58;65.87
66196;BME280;53000;45.182;5.736;2022-08-19T00:14:03;98893.91;;;21.66;65.95
66196;BME280;53000;45.182;5.736;2022-08-19T00:16:29;98894.47;;;21.68;65.74
66196;BME280;53000;45.182;5.736;2022-08-19T00:18:55;98904.97;;;21.71;66.68
66196;BME280;53000;45.182;5.736;2022-08-19T00:21:21;98896.72;;;21.71;65.43
66196;BME280;53000;45.182;5.736;2022-08-19T00:23:47;98901.81;;;21.62;66.30
66196;BME280;53000;45.182;5.736;2022-08-19T00:26:13;98901.81;;;21.62;65.59
66196;BME280;53000;45.182;5.736;2022-08-19T00:28:40;98914.25;;;21.65;65.95
66196;BME280;53000;45.182;5.736;2022-08-19T00:31:07;98916.25;;;21.70;66.07
66196;BME280;53000;45.182;5.736;2022-08-19T00:33:33;98911.91;;;21.74;66.18
66196;BME280;53000;45.182;5.736;2022-08-19T00:36:00;98916.34;;;21.75;66.35
66196;BME280;53000;45.182;5.736;2022-08-19T00:38:26;98912.25;;;21.77;65.86
66196;BME280;53000;45.182;5.736;2022-08-19T00:40:52;98915.81;;;21.78;66.33
66196;BME280;53000;45.182;5.736;2022-08-19T00:43:22;98913.06;;;21.78;65.85
66196;BME280;53000;45.182;5.736;2022-08-19T00:45:48;98919.91;;;21.75;66.00
66196;BME280;53000;45.182;5.736;2022-08-19T00:48:15;98930.13;;;21.75;65.99
66196;BME280;53000;45.182;5.736;2022-08-19T00:50:42;98919.09;;;21.75;66.09
66196;BME280;53000;45.182;5.736;2022-08-19T00:53:09;98912.47;;;21.76;66.22
66196;BME280;53000;45.182;5.736;2022-08-19T00:55:37;98911.91;;;21.74;66.07
66196;BME280;53000;45.182;5.736;2022-08-19T00:58:07;98913.25;;;21.71;65.84
66196;BME280;53000;45.182;5.736;2022-08-19T01:00:34;98919.34;;;21.73;65.94
66196;BME280;53000;45.182;5.736;2022-08-19T01:03:05;98912.47;;;21.76;66.36
66196;BME280;53000;45.182;5.736;2022-08-19T01:05:31;98904.97;;;21.71;65.99
66196;BME280;53000;45.182;5.736;2022-08-19T01:07:59;98900.88;;;21.57;66.00
66196;BME280;53000;45.182;5.736;2022-08-19T01:10:27;98898.31;;;21.50;66.35
66196;BME280;53000;45.182;5.736;2022-08-19T01:12:55;98898.06;;;21.52;66.88
66196;BME280;53000;45.182;5.736;2022-08-19T01:15:31;98904.16;;;21.54;67.56
66196;BME280;53000;45.182;5.736;2022-08-19T01:18:00;98898.13;;;21.57;66.72
66196;BME280;53000;45.182;5.736;2022-08-19T01:20:27;98902.56;;;21.58;66.45
66196;BME280;53000;45.182;5.736;2022-08-19T01:22:58;98891.63;;;21.63;65.78
66196;BME280;53000;45.182;5.736;2022-08-19T01:25:33;98893.78;;;21.61;66.59
66196;BME280;53000;45.182;5.736;2022-08-19T01:28:02;98888.28;;;21.61;66.29
66196;BME280;53000;45.182;5.736;2022-08-19T01:30:31;98889.78;;;21.52;65.86
66196;BME280;53000;45.182;5.736;2022-08-19T01:32:57;98895.53;;;21.50;66.25
66196;BME280;53000;45.182;5.736;2022-08-19T01:35:28;98877.44;;;21.54;66.71
66196;BME280;53000;45.182;5.736;2022-08-19T01:37:58;98879.38;;;21.54;66.26
66196;BME280;53000;45.182;5.736;2022-08-19T01:40:30;98882.38;;;21.52;66.86
66196;BME280;53000;45.182;5.736;2022-08-19T01:42:57;98878.03;;;21.56;66.06
66196;BME280;53000;45.182;5.736;2022-08-19T01:45:26;98890.78;;;21.62;67.05
66196;BME280;53000;45.182;5.736;2022-08-19T01:47:51;98882.88;;;21.66;66.65
66196;BME280;53000;45.182;5.736;2022-08-19T01:50:17;98890.88;;;21.68;66.12
66196;BME280;53000;45.182;5.736;2022-08-19T01:52:43;98888.63;;;21.64;66.24
66196;BME280;53000;45.182;5.736;2022-08-19T01:55:13;98888.97;;;21.68;67.21
66196;BME280;53000;45.182;5.736;2022-08-19T01:57:41;98890.56;;;21.64;65.97
66196;BME280;53000;45.182;5.736;2022-08-19T02:00:12;98894.38;;;21.63;67.01
66196;BME280;53000;45.182;5.736;2022-08-19T02:02:40;98887.97;;;21.57;66.70
66196;BME280;53000;45.182;5.736;2022-08-19T02:05:05;98897.53;;;21.55;66.97
66196;BME280;53000;45.182;5.736;2022-08-19T02:07:33;98894.19;;;21.53;67.01
66196;BME280;53000;45.182;5.736;2022-08-19T02:10:05;98892.63;;;21.57;67.05
66196;BME280;53000;45.182;5.736;2022-08-19T02:12:31;98892.03;;;21.55;67.31
66196;BME280;53000;45.182;5.736;2022-08-19T02:14:57;98897.06;;;21.58;66.86
66196;BME280;53000;45.182;5.736;2022-08-19T02:17:23;98896.47;;;21.56;66.82
66196;BME280;53000;45.182;5.736;2022-08-19T02:19:48;98890.38;;;21.54;67.89
66196;BME280;53000;45.182;5.736;2022-08-19T02:22:14;98887.22;;;21.45;67.55
66196;BME280;53000;45.182;5.736;2022-08-19T02:24:39;98891.03;;;21.44;66.61
66196;BME280;53000;45.182;5.736;2022-08-19T02:27:06;98882.53;;;21.46;67.49
66196;BME280;53000;45.182;5.736;2022-08-19T02:29:31;98893.19;;;21.42;67.20
66196;BME280;53000;45.182;5.736;2022-08-19T02:31:57;98899.19;;;21.39;67.85
66196;BME280;53000;45.182;5.736;2022-08-19T02:34:23;98899.56;;;21.42;67.85
66196;BME280;53000;45.182;5.736;2022-08-19T02:36:51;98897.72;;;21.48;67.36
66196;BME280;53000;45.182;5.736;2022-08-19T02:39:17;98899.41;;;21.49;67.40
66196;BME280;53000;45.182;5.736;2022-08-19T02:41:43;98911.00;;;21.51;66.97
66196;BME280;53000;45.182;5.736;2022-08-19T02:44:08;98912.06;;;21.50;66.86
66196;BME280;53000;45.182;5.736;2022-08-19T02:46:34;98924.84;;;21.56;67.14
66196;BME280;53000;45.182;5.736;2022-08-19T02:49:04;98925.19;;;21.60;67.35
66196;BME280;53000;45.182;5.736;2022-08-19T02:51:33;98913.66;;;21.63;67.27
66196;BME280;53000;45.182;5.736;2022-08-19T02:53:59;98913.16;;;21.66;67.47
66196;BME280;53000;45.182;5.736;2022-08-19T02:56:26;98918.41;;;21.68;67.65
66196;BME280;53000;45.182;5.736;2022-08-19T02:58:53;98918.41;;;21.68;66.90
66196;BME280;53000;45.182;5.736;2022-08-19T03:01:24;98923.69;;;21.69;67.73
66196;BME280;53000;45.182;5.736;2022-08-19T03:03:50;98927.00;;;21.71;67.59
66196;BME280;53000;45.182;5.736;2022-08-19T03:06:16;98922.09;;;21.73;67.84
66196;BME280;53000;45.182;5.736;2022-08-19T03:08:44;98924.25;;;21.71;67.74
66196;BME280;53000;45.182;5.736;2022-08-19T03:11:36;98918.69;;;21.66;68.34
66196;BME280;53000;45.182;5.736;2022-08-19T03:14:03;98925.25;;;21.65;68.26
66196;BME280;53000;45.182;5.736;2022-08-19T03:16:31;98933.28;;;21.67;67.43
66196;BME280;53000;45.182;5.736;2022-08-19T03:18:57;98918.69;;;21.66;67.65
66196;BME280;53000;45.182;5.736;2022-08-19T03:21:27;98917.81;;;21.65;67.43
66196;BME280;53000;45.182;5.736;2022-08-19T03:23:57;98918.16;;;21.69;67.71
66196;BME280;53000;45.182;5.736;2022-08-19T03:26:23;98928.34;;;21.69;67.73
66196;BME280;53000;45.182;5.736;2022-08-19T03:28:48;98927.34;;;21.58;66.80
66196;BME280;53000;45.182;5.736;2022-08-19T03:31:19;98918.41;;;21.51;67.81
66196;BME280;53000;45.182;5.736;2022-08-19T03:33:50;98926.00;;;21.43;68.54
66196;BME280;53000;45.182;5.736;2022-08-19T03:36:22;98930.06;;;21.41;67.85
66196;BME280;53000;45.182;5.736;2022-08-19T03:38:51;98940.72;;;21.37;68.24
66196;BME280;53000;45.182;5.736;2022-08-19T03:41:19;98941.56;;;21.38;68.21
66196;BME280;53000;45.182;5.736;2022-08-19T03:43:46;98941.56;;;21.38;68.32
66196;BME280;53000;45.182;5.736;2022-08-19T03:46:18;98954.00;;;21.40;68.18
66196;BME280;53000;45.182;5.736;2022-08-19T03:48:47;98960.97;;;21.43;68.35
66196;BME280;53000;45.182;5.736;2022-08-19T03:51:18;98953.31;;;21.45;68.04
66196;BME280;53000;45.182;5.736;2022-08-19T03:53:45;98953.38;;;21.50;67.83
66196;BME280;53000;45.182;5.736;2022-08-19T03:56:11;98949.28;;;21.53;67.71
66196;BME280;53000;45.182;5.736;2022-08-19T03:58:38;98955.97;;;21.57;68.26
66196;BME280;53000;45.182;5.736;2022-08-19T04:01:10;98964.81;;;21.59;67.82
66196;BME280;53000;45.182;5.736;2022-08-19T04:03:38;98958.25;;;21.60;67.87
66196;BME280;53000;45.182;5.736;2022-08-19T04:06:31;98960.13;;;21.59;67.56
66196;BME280;53000;45.182;5.736;2022-08-19T04:08:58;98971.16;;;21.59;67.88
66196;BME280;53000;45.182;5.736;2022-08-19T04:11:28;98981.69;;;21.62;67.48
66196;BME280;53000;45.182;5.736;2022-08-19T04:13:54;98984.44;;;21.62;67.29
66196;BME280;53000;45.182;5.736;2022-08-19T04:16:23;98979.75;;;21.63;67.95
66196;BME280;53000;45.182;5.736;2022-08-19T04:18:49;98977.41;;;21.55;67.62
66196;BME280;53000;45.182;5.736;2022-08-19T04:21:20;98988.09;;;21.51;67.87
66196;BME280;53000;45.182;5.736;2022-08-19T04:23:46;98983.44;;;21.52;68.14
66196;BME280;53000;45.182;5.736;2022-08-19T04:26:23;99003.63;;;21.57;68.17
66196;BME280;53000;45.182;5.736;2022-08-19T04:28:49;99009.72;;;21.59;68.29
66196;BME280;53000;45.182;5.736;2022-08-19T04:31:19;99004.47;;;21.58;68.07
66196;BME280;53000;45.182;5.736;2022-08-19T04:33:45;99003.72;;;21.62;67.52
66196;BME280;53000;45.182;5.736;2022-08-19T04:36:19;99012.81;;;21.63;67.79
66196;BME280;53000;45.182;5.736;2022-08-19T04:38:46;99015.81;;;21.61;68.29
66196;BME280;53000;45.182;5.736;2022-08-19T04:41:11;99000.88;;;21.57;67.73
66196;BME280;53000;45.182;5.736;2022-08-19T04:43:55;99007.63;;;21.50;68.07
66196;BME280;53000;45.182;5.736;2022-08-19T04:46:21;99011.94;;;21.46;67.81
66196;BME280;53000;45.182;5.736;2022-08-19T04:48:46;99019.03;;;21.41;68.43
66196;BME280;53000;45.182;5.736;2022-08-19T04:51:12;99019.84;;;21.42;68.29
66196;BME280;53000;45.182;5.736;2022-08-19T04:53:40;99023.91;;;21.39;68.06
66196;BME280;53000;45.182;5.736;2022-08-19T04:56:16;99010.91;;;21.35;68.41
66196;BME280;53000;45.182;5.736;2022-08-19T04:58:43;99025.00;;;21.38;68.13
66196;BME280;53000;45.182;5.736;2022-08-19T05:01:14;99022.38;;;21.43;68.16
66196;BME280;53000;45.182;5.736;2022-08-19T05:03:42;99030.16;;;21.47;68.94
66196;BME280;53000;45.182;5.736;2022-08-19T05:06:10;99024.97;;;21.50;68.51
66196;BME280;53000;45.182;5.736;2022-08-19T05:08:38;99033.81;;;21.52;68.22
66196;BME280;53000;45.182;5.736;2022-08-19T05:11:12;99045.94;;;21.51;68.02
66196;BME280;53000;45.182;5.736;2022-08-19T05:13:38;99050.69;;;21.56;68.65
66196;BME280;53000;45.182;5.736;2022-08-19T05:16:05;99055.47;;;21.60;68.54
66196;BME280;53000;45.182;5.736;2022-08-19T05:18:30;99049.22;;;21.65;68.56
66196;BME280;53000;45.182;5.736;2022-08-19T05:21:17;99062.97;;;21.65;68.40
66196;BME280;53000;45.182;5.736;2022-08-19T05:24:01;99065.16;;;21.63;68.45
66196;BME280;53000;45.182;5.736;2022-08-19T05:26:27;99075.69;;;21.66;68.56
66196;BME280;53000;45.182;5.736;2022-08-19T05:28:53;99077.94;;;21.69;68.45
66196;BME280;53000;45.182;5.736;2022-08-19T05:31:19;99069.44;;;21.71;68.60
66196;BME280;53000;45.182;5.736;2022-08-19T05:33:45;99068.34;;;21.72;68.90
66196;BME280;53000;45.182;5.736;2022-08-19T05:36:10;99075.34;;;21.62;68.29
66196;BME280;53000;45.182;5.736;2022-08-19T05:38:36;99063.97;;;21.59;68.66
66196;BME280;53000;45.182;5.736;2022-08-19T05:41:09;99067.91;;;21.63;68.45
66196;BME280;53000;45.182;5.736;2022-08-19T05:43:34;99065.25;;;21.68;68.48
66196;BME280;53000;45.182;5.736;2022-08-19T05:46:00;99070.66;;;21.63;69.41
66196;BME280;53000;45.182;5.736;2022-08-19T05:48:25;99066.13;;;21.57;68.26
66196;BME280;53000;45.182;5.736;2022-08-19T05:50:51;99073.06;;;21.59;68.62
66196;BME280;53000;45.182;5.736;2022-08-19T05:53:17;99079.75;;;21.63;68.56
66196;BME280;53000;45.182;5.736;2022-08-19T05:55:43;99077.25;;;21.62;68.59
66196;BME280;53000;45.182;5.736;2022-08-19T05:58:08;99088.28;;;21.62;67.96
66196;BME280;53000;45.182;5.736;2022-08-19T06:00:35;99081.44;;;21.64;68.64
66196;BME280;53000;45.182;5.736;2022-08-19T06:03:01;99080.09;;;21.67;68.36
66196;BME280;53000;45.182;5.736;2022-08-19T06:05:29;99076.00;;;21.70;68.46
66196;BME280;53000;45.182;5.736;2022-08-19T06:07:55;99085.97;;;21.71;68.44
66196;BME280;53000;45.182;5.736;2022-08-19T06:10:21;99091.91;;;21.79;68.09
66196;BME280;53000;45.182;5.736;2022-08-19T06:12:47;99085.88;;;21.82;68.66
66196;BME280;53000;45.182;5.736;2022-08-19T06:15:14;99098.44;;;21.90;68.22
66196;BME280;53000;45.182;5.736;2022-08-19T06:17:40;99098.50;;;21.95;68.27
66196;BME280;53000;45.182;5.736;2022-08-19T06:20:09;99099.94;;;21.98;68.07
66196;BME280;53000;45.182;5.736;2022-08-19T06:22:40;99099.69;;;21.99;68.09
66196;BME280;53000;45.182;5.736;2022-08-19T06:25:06;99116.34;;;22.04;68.22
66196;BME280;53000;45.182;5.736;2022-08-19T06:27:31;99109.13;;;22.03;67.64
66196;BME280;53000;45.182;5.736;2022-08-19T06:29:58;99127.59;;;22.03;68.17
66196;BME280;53000;45.182;5.736;2022-08-19T06:32:23;99130.94;;;22.05;68.24
66196;BME280;53000;45.182;5.736;2022-08-19T06:34:49;99131.03;;;22.10;68.17
66196;BME280;53000;45.182;5.736;2022-08-19T06:37:14;99135.19;;;22.13;68.41
66196;BME280;53000;45.182;5.736;2022-08-19T06:39:42;99129.22;;;22.16;67.96
66196;BME280;53000;45.182;5.736;2022-08-19T06:42:08;99137.22;;;22.17;67.74
66196;BME280;53000;45.182;5.736;2022-08-19T06:44:38;99132.03;;;22.21;67.65
66196;BME280;53000;45.182;5.736;2022-08-19T06:47:06;99136.00;;;22.25;67.36
66196;BME280;53000;45.182;5.736;2022-08-19T06:49:32;99136.00;;;22.25;67.13
66196;BME280;53000;45.182;5.736;2022-08-19T06:51:58;99135.75;;;22.27;67.58
66196;BME280;53000;45.182;5.736;2022-08-19T06:54:24;99149.91;;;22.30;67.69
66196;BME280;53000;45.182;5.736;2022-08-19T06:56:50;99142.19;;;22.32;67.52
66196;BME280;53000;45.182;5.736;2022-08-19T06:59:18;99141.09;;;22.33;67.45
66196;BME280;53000;45.182;5.736;2022-08-19T07:01:50;99151.63;;;22.36;67.00
66196;BME280;53000;45.182;5.736;2022-08-19T07:04:19;99149.72;;;22.37;67.70
66196;BME280;53000;45.182;5.736;2022-08-19T07:06:45;99147.81;;;22.37;67.12
66196;BME280;53000;45.182;5.736;2022-08-19T07:09:15;99158.00;;;22.37;67.30
66196;BME280;53000;45.182;5.736;2022-08-19T07:11:46;99153.56;;;22.36;66.86
66196;BME280;53000;45.182;5.736;2022-08-19T07:14:12;99159.19;;;22.41;67.51
66196;BME280;53000;45.182;5.736;2022-08-19T07:16:39;99167.53;;;22.46;67.50
66196;BME280;53000;45.182;5.736;2022-08-19T07:19:05;99172.03;;;22.52;66.81
66196;BME280;53000;45.182;5.736;2022-08-19T07:21:30;99174.88;;;22.57;67.33
66196;BME280;53000;45.182;5.736;2022-08-19T07:23:58;99183.50;;;22.61;67.50
66196;BME280;53000;45.182;5.736;2022-08-19T07:26:30;99169.94;;;22.59;66.70
66196;BME280;53000;45.182;5.736;2022-08-19T07:28:56;99184.16;;;22.51;67.10
66196;BME280;53000;45.182;5.736;2022-08-19T07:31:26;99178.91;;;22.50;67.16
66196;BME280;53000;45.182;5.736;2022-08-19T07:33:54;99181.06;;;22.48;67.08
66196;BME280;53000;45.182;5.736;2022-08-19T07:36:23;99179.16;;;22.48;67.34
66196;BME280;53000;45.182;5.736;2022-08-19T07:38:50;99187.50;;;22.53;67.12
66196;BME280;53000;45.182;5.736;2022-08-19T07:41:19;99178.47;;;22.58;67.27
66196;BME280;53000;45.182;5.736;2022-08-19T07:43:47;99184.09;;;22.63;66.07
66196;BME280;53000;45.182;5.736;2022-08-19T07:46:14;99178.88;;;22.66;66.37
66196;BME280;53000;45.182;5.736;2022-08-19T07:48:42;99185.25;;;22.67;66.57
66196;BME280;53000;45.182;5.736;2022-08-19T07:51:11;99190.84;;;22.72;66.14
66196;BME280;53000;45.182;5.736;2022-08-19T07:53:37;99182.66;;;22.77;66.29
66196;BME280;53000;45.182;5.736;2022-08-19T07:56:03;99193.44;;;22.79;65.90
66196;BME280;53000;45.182;5.736;2022-08-19T07:58:31;99180.47;;;22.79;66.01
66196;BME280;53000;45.182;5.736;2022-08-19T08:00:57;99178.88;;;22.83;66.43
66196;BME280;53000;45.182;5.736;2022-08-19T08:03:23;99195.78;;;22.87;65.87
66196;BME280;53000;45.182;5.736;2022-08-19T08:06:08;99191.94;;;22.88;65.56
66196;BME280;53000;45.182;5.736;2022-08-19T08:08:52;99190.84;;;22.89;65.95
66196;BME280;53000;45.182;5.736;2022-08-19T08:11:39;99192.59;;;22.95;65.61
66196;BME280;53000;45.182;5.736;2022-08-19T08:14:05;99179.88;;;22.94;65.28
66196;BME280;53000;45.182;5.736;2022-08-19T08:16:35;99189.84;;;23.12;65.18
66196;BME280;53000;45.182;5.736;2022-08-19T08:19:01;99190.25;;;23.21;65.40
66196;BME280;53000;45.182;5.736;2022-08-19T08:21:26;99188.38;;;23.26;64.93
66196;BME280;53000;45.182;5.736;2022-08-19T08:23:51;99187.34;;;23.33;64.81
66196;BME280;53000;45.182;5.736;2022-08-19T08:26:20;99199.56;;;23.37;64.84
66196;BME280;53000;45.182;5.736;2022-08-19T08:28:45;99202.41;;;23.42;64.50
66196;BME280;53000;45.182;5.736;2022-08-19T08:31:12;99203.38;;;23.53;64.87
66196;BME280;53000;45.182;5.736;2022-08-19T08:33:37;99207.13;;;23.85;64.50
66196;BME280;53000;45.182;5.736;2022-08-19T08:36:07;99204.66;;;24.11;63.30
66196;BME280;53000;45.182;5.736;2022-08-19T08:38:33;99213.69;;;24.28;62.87
66196;BME280;53000;45.182;5.736;2022-08-19T08:41:09;99206.63;;;24.43;63.92
66196;BME280;53000;45.182;5.736;2022-08-19T08:43:40;99207.16;;;24.67;61.51
66196;BME280;53000;45.182;5.736;2022-08-19T08:46:39;99211.28;;;24.64;61.60
66196;BME280;53000;45.182;5.736;2022-08-19T08:49:33;99222.66;;;24.68;61.89
66196;BME280;53000;45.182;5.736;2022-08-19T08:52:39;99218.47;;;24.65;61.40
66196;BME280;53000;45.182;5.736;2022-08-19T08:55:05;99211.88;;;24.72;61.92
66196;BME280;53000;45.182;5.736;2022-08-19T08:57:39;99211.97;;;24.82;61.24
66196;BME280;53000;45.182;5.736;2022-08-19T09:00:09;99210.34;;;24.86;60.10
66196;BME280;53000;45.182;5.736;2022-08-19T09:02:37;99218.16;;;24.94;60.01
66196;BME280;53000;45.182;5.736;2022-08-19T09:05:03;99227.66;;;25.03;60.58
66196;BME280;53000;45.182;5.736;2022-08-19T09:10:33;99233.19;;;25.03;60.17
66196;BME280;53000;45.182;5.736;2022-08-19T09:13:15;99231.81;;;25.06;60.13
66196;BME280;53000;45.182;5.736;2022-08-19T09:15:53;99222.66;;;25.05;58.89
66196;BME280;53000;45.182;5.736;2022-08-19T09:18:22;99222.66;;;25.05;58.79
66196;BME280;53000;45.182;5.736;2022-08-19T09:20:48;99236.53;;;25.05;58.07
66196;BME280;53000;45.182;5.736;2022-08-19T09:23:13;99233.72;;;25.00;56.75
66196;BME280;53000;45.182;5.736;2022-08-19T09:25:39;99226.50;;;24.99;58.46
66196;BME280;53000;45.182;5.736;2022-08-19T09:28:05;99240.66;;;25.03;58.50
66196;BME280;53000;45.182;5.736;2022-08-19T09:30:39;99244.56;;;25.07;58.17
66196;BME280;53000;45.182;5.736;2022-08-19T09:33:06;99241.81;;;25.12;58.37
66196;BME280;53000;45.182;5.736;2022-08-19T09:35:32;99239.94;;;25.18;58.25
66196;BME280;53000;45.182;5.736;2022-08-19T09:37:58;99244.97;;;25.21;57.48
66196;BME280;53000;45.182;5.736;2022-08-19T09:40:25;99241.09;;;25.22;55.98
66196;BME280;53000;45.182;5.736;2022-08-19T09:42:51;99236.41;;;25.22;58.03
66196;BME280;53000;45.182;5.736;2022-08-19T09:45:20;99247.97;;;25.19;57.08
66196;BME280;53000;45.182;5.736;2022-08-19T09:47:47;99255.69;;;25.17;57.40
66196;BME280;53000;45.182;5.736;2022-08-19T09:50:13;99244.03;;;25.10;57.11
66196;BME280;53000;45.182;5.736;2022-08-19T09:52:38;99248.75;;;25.09;56.39
66196;BME280;53000;45.182;5.736;2022-08-19T09:55:06;99257.31;;;25.08;56.20
66196;BME280;53000;45.182;5.736;2022-08-19T09:57:32;99249.53;;;25.05;56.81
66196;BME280;53000;45.182;5.736;2022-08-19T09:59:58;99265.88;;;25.06;56.87
66196;BME280;53000;45.182;5.736;2022-08-19T10:02:23;99265.34;;;25.09;56.66
66196;BME280;53000;45.182;5.736;2022-08-19T10:04:50;99260.97;;;25.14;56.86
66196;BME280;53000;45.182;5.736;2022-08-19T10:07:34;99259.03;;;25.19;56.24
66196;BME280;53000;45.182;5.736;2022-08-19T10:10:00;99253.03;;;25.22;55.63
66196;BME280;53000;45.182;5.736;2022-08-19T10:12:26;99248.63;;;25.26;55.10
66196;BME280;53000;45.182;5.736;2022-08-19T10:14:51;99244.78;;;25.33;55.94
66196;BME280;53000;45.182;5.736;2022-08-19T10:17:18;99242.84;;;25.38;55.48
66196;BME280;53000;45.182;5.736;2022-08-19T10:19:44;99242.66;;;25.50;53.94
66196;BME280;53000;45.182;5.736;2022-08-19T10:22:09;99252.69;;;25.61;54.76
66196;BME280;53000;45.182;5.736;2022-08-19T10:24:39;99259.69;;;25.69;53.83
66196;BME280;53000;45.182;5.736;2022-08-19T10:27:05;99256.38;;;25.77;53.63
66196;BME280;53000;45.182;5.736;2022-08-19T10:29:32;99252.00;;;25.86;54.69
66196;BME280;53000;45.182;5.736;2022-08-19T10:32:03;99256.72;;;25.86;52.81
66196;BME280;53000;45.182;5.736;2022-08-19T10:34:31;99247.53;;;25.80;52.82
66196;BME280;53000;45.182;5.736;2022-08-19T10:36:57;99252.50;;;25.78;53.22
66196;BME280;53000;45.182;5.736;2022-08-19T10:39:23;99264.41;;;25.74;54.50
66196;BME280;53000;45.182;5.736;2022-08-19T10:41:48;99253.31;;;25.74;53.18
66196;BME280;53000;45.182;5.736;2022-08-19T10:44:14;99260.81;;;25.78;52.77
66196;BME280;53000;45.182;5.736;2022-08-19T10:46:42;99255.59;;;25.87;53.42
66196;BME280;53000;45.182;5.736;2022-08-19T10:49:10;99264.00;;;25.97;53.33
66196;BME280;53000;45.182;5.736;2022-08-19T10:51:37;99268.72;;;26.07;53.20
66196;BME280;53000;45.182;5.736;2022-08-19T10:54:21;99268.50;;;26.19;53.43
66196;BME280;53000;45.182;5.736;2022-08-19T10:56:47;99266.03;;;26.27;53.33
66196;BME280;53000;45.182;5.736;2022-08-19T10:59:25;99272.72;;;26.31;53.38
66196;BME280;53000;45.182;5.736;2022-08-19T11:01:53;99265.75;;;26.29;52.65
66196;BME280;53000;45.182;5.736;2022-08-19T11:04:19;99271.28;;;26.24;52.61
66196;BME280;53000;45.182;5.736;2022-08-19T11:06:46;99273.78;;;26.20;52.01
66196;BME280;53000;45.182;5.736;2022-08-19T11:09:14;99277.34;;;26.16;52.37
66196;BME280;53000;45.182;5.736;2022-08-19T11:11:40;99280.38;;;26.09;52.28
66196;BME280;53000;45.182;5.736;2022-08-19T11:14:08;99275.91;;;26.03;53.18
66196;BME280;53000;45.182;5.736;2022-08-19T11:16:34;99279.50;;;25.98;52.68
66196;BME280;53000;45.182;5.736;2022-08-19T11:19:00;99285.63;;;25.95;52.71
66196;BME280;53000;45.182;5.736;2022-08-19T11:21:31;99287.56;;;25.95;52.92
66196;BME280;53000;45.182;5.736;2022-08-19T11:24:01;99293.09;;;25.95;53.52
66196;BME280;53000;45.182;5.736;2022-08-19T11:26:28;99291.69;;;25.92;52.59
66196;BME280;53000;45.182;5.736;2022-08-19T11:28:56;99280.81;;;25.85;52.88
66196;BME280;53000;45.182;5.736;2022-08-19T11:31:25;99283.00;;;25.73;53.34
66196;BME280;53000;45.182;5.736;2022-08-19T11:33:51;99285.72;;;25.68;54.00
66196;BME280;53000;45.182;5.736;2022-08-19T11:36:18;99286.78;;;25.62;53.59
66196;BME280;53000;45.182;5.736;2022-08-19T11:38:45;99292.31;;;25.62;53.88
66196;BME280;53000;45.182;5.736;2022-08-19T11:41:14;99284.31;;;25.65;53.31
66196;BME280;53000;45.182;5.736;2022-08-19T11:43:41;99284.38;;;25.76;53.41
66196;BME280;53000;45.182;5.736;2022-08-19T11:46:08;99284.78;;;26.00;53.03
66196;BME280;53000;45.182;5.736;2022-08-19T11:48:35;99283.50;;;26.23;52.26
66196;BME280;53000;45.182;5.736;2022-08-19T11:51:05;99278.03;;;26.48;51.97
66196;BME280;53000;45.182;5.736;2022-08-19T11:53:32;99293.63;;;26.70;51.26
66196;BME280;53000;45.182;5.736;2022-08-19T11:55:58;99283.09;;;26.82;49.38
66196;BME280;53000;45.182;5.736;2022-08-19T11:58:23;99283.94;;;26.93;51.39
66196;BME280;53000;45.182;5.736;2022-08-19T12:00:50;99292.81;;;27.00;50.13
66196;BME280;53000;45.182;5.736;2022-08-19T12:03:15;99286.44;;;27.05;50.90
66196;BME280;53000;45.182;5.736;2022-08-19T12:05:41;99286.97;;;27.12;51.15
66196;BME280;53000;45.182;5.736;2022-08-19T12:08:07;99287.84;;;27.23;50.43
66196;BME280;53000;45.182;5.736;2022-08-19T12:10:33;99288.66;;;27.33;49.06
66196;BME280;53000;45.182;5.736;2022-08-19T12:12:59;99289.75;;;27.48;48.94
66196;BME280;53000;45.182;5.736;2022-08-19T12:15:26;99291.13;;;27.56;47.71
66196;BME280;53000;45.182;5.736;2022-08-19T12:17:53;99289.72;;;27.63;48.63
66196;BME280;53000;45.182;5.736;2022-08-19T12:20:22;99287.75;;;27.79;49.37
66196;BME280;53000;45.182;5.736;2022-08-19T12:22:48;99283.56;;;27.92;46.99
66196;BME280;53000;45.182;5.736;2022-08-19T12:25:13;99281.53;;;28.08;47.21
66196;BME280;53000;45.182;5.736;2022-08-19T12:27:39;99279.81;;;28.22;46.74
66196;BME280;53000;45.182;5.736;2022-08-19T12:30:07;99282.88;;;28.21;45.88
66196;BME280;53000;45.182;5.736;2022-08-19T12:32:33;99287.09;;;28.08;45.98
66196;BME280;53000;45.182;5.736;2022-08-19T12:34:59;99300.81;;;27.94;45.76
66196;BME280;53000;45.182;5.736;2022-08-19T12:37:24;99291.91;;;27.87;47.43
66196;BME280;53000;45.182;5.736;2022-08-19T12:39:49;99281.88;;;27.81;46.51
66196;BME280;53000;45.182;5.736;2022-08-19T12:42:15;99284.13;;;27.73;46.96
66196;BME280;53000;45.182;5.736;2022-08-19T12:44:43;99285.56;;;27.61;47.88
66196;BME280;53000;45.182;5.736;2022-08-19T12:47:11;99279.22;;;27.45;48.03
66196;BME280;53000;45.182;5.736;2022-08-19T12:49:37;99283.09;;;27.18;49.23
66196;BME280;53000;45.182;5.736;2022-08-19T12:52:05;99291.16;;;26.94;49.23
66196;BME280;53000;45.182;5.736;2022-08-19T12:54:31;99293.91;;;26.79;49.82
66196;BME280;53000;45.182;5.736;2022-08-19T12:56:57;99287.50;;;26.63;50.01
66196;BME280;53000;45.182;5.736;2022-08-19T12:59:23;99289.13;;;26.53;50.41
66196;BME280;53000;45.182;5.736;2022-08-19T13:01:48;99285.22;;;26.44;50.83
66196;BME280;53000;45.182;5.736;2022-08-19T13:04:14;99297.38;;;26.28;52.04
66196;BME280;53000;45.182;5.736;2022-08-19T13:06:40;99294.81;;;26.06;53.09
66196;BME280;53000;45.182;5.736;2022-08-19T13:09:05;99302.78;;;25.92;53.70